Elberta, Michigan
Current Conditions -  °F | °C
As of 10:33 PM on Friday 19 Dec 2014 (Local Time) from KFKS Reporting Station
Overcast Overcast  
Wind Chill: 28°   Ceiling: 2500
Heat Index: 28°   Visibility: 10mi
Dew Point: 25°   Wind: 0mph
Humidity: 90%   Direction: NA
Pressure: 30.26"   Gusts: NA
Location:  44.62°N, 86.23°W
Report Text: KFKS 200333Z AUTO 00000KT 10SM OVC025 M02/M04 A3026 RMK AO2 T10231037
Loading
Personal Weather Stations






























Interactive Weather Map New forecast layout! Learn more

10-Day Weather Forecast

Advertisements
Track Severe Weather on mobile